sensor_id;sensor_type;location;lat;lon;timestamp;pressure;altitude;pressure_sealevel;temperature;humidity
9740;BME280;4909;42.680;26.324;2023-03-04T00:02:17;98686.66;;;7.77;100.00
9740;BME280;4909;42.680;26.324;2023-03-04T00:04:43;98688.63;;;7.71;100.00
9740;BME280;4909;42.680;26.324;2023-03-04T00:07:10;98687.59;;;7.75;100.00
9740;BME280;4909;42.680;26.324;2023-03-04T00:09:41;98689.25;;;7.79;100.00
9740;BME280;4909;42.680;26.324;2023-03-04T00:12:09;98694.13;;;7.91;100.00
9740;BME280;4909;42.680;26.324;2023-03-04T00:14:36;98684.34;;;7.67;100.00
9740;BME280;4909;42.680;26.324;2023-03-04T00:17:03;98678.13;;;7.69;100.00
9740;BME280;4909;42.680;26.324;2023-03-04T00:19:31;98684.91;;;7.76;100.00
9740;BME280;4909;42.680;26.324;2023-03-04T00:21:59;98675.09;;;7.80;100.00
9740;BME280;4909;42.680;26.324;2023-03-04T00:24:26;98681.63;;;7.96;100.00
9740;BME280;4909;42.680;26.324;2023-03-04T00:26:52;98670.22;;;7.94;100.00
9740;BME280;4909;42.680;26.324;2023-03-04T00:29:20;98672.84;;;7.69;100.00
9740;BME280;4909;42.680;26.324;2023-03-04T00:31:47;98665.63;;;7.47;100.00
9740;BME280;4909;42.680;26.324;2023-03-04T00:34:14;98659.13;;;7.30;100.00
9740;BME280;4909;42.680;26.324;2023-03-04T00:36:41;98661.69;;;7.32;100.00
9740;BME280;4909;42.680;26.324;2023-03-04T00:39:09;98662.25;;;7.41;100.00
9740;BME280;4909;42.680;26.324;2023-03-04T00:41:35;98644.00;;;7.35;100.00
9740;BME280;4909;42.680;26.324;2023-03-04T00:44:02;98646.00;;;7.27;100.00
9740;BME280;4909;42.680;26.324;2023-03-04T00:46:31;98641.72;;;7.23;100.00
9740;BME280;4909;42.680;26.324;2023-03-04T00:48:57;98618.91;;;6.93;100.00
9740;BME280;4909;42.680;26.324;2023-03-04T00:51:24;98644.03;;;7.06;100.00
9740;BME280;4909;42.680;26.324;2023-03-04T00:53:51;98645.13;;;6.99;100.00
9740;BME280;4909;42.680;26.324;2023-03-04T00:56:18;98648.63;;;6.99;100.00
9740;BME280;4909;42.680;26.324;2023-03-04T00:58:45;98635.09;;;6.82;100.00
9740;BME280;4909;42.680;26.324;2023-03-04T01:01:11;98638.69;;;6.78;100.00
9740;BME280;4909;42.680;26.324;2023-03-04T01:03:39;98645.69;;;6.79;100.00
9740;BME280;4909;42.680;26.324;2023-03-04T01:06:07;98644.84;;;6.79;100.00
9740;BME280;4909;42.680;26.324;2023-03-04T01:08:34;98635.16;;;6.79;100.00
9740;BME280;4909;42.680;26.324;2023-03-04T01:11:00;98635.25;;;6.45;100.00
9740;BME280;4909;42.680;26.324;2023-03-04T01:13:27;98635.09;;;6.51;100.00
9740;BME280;4909;42.680;26.324;2023-03-04T01:15:54;98636.38;;;6.68;100.00
9740;BME280;4909;42.680;26.324;2023-03-04T01:18:22;98638.66;;;6.80;100.00
9740;BME280;4909;42.680;26.324;2023-03-04T01:20:50;98633.75;;;6.68;100.00
9740;BME280;4909;42.680;26.324;2023-03-04T01:23:17;98637.28;;;6.67;100.00
9740;BME280;4909;42.680;26.324;2023-03-04T01:25:43;98630.00;;;6.75;100.00
9740;BME280;4909;42.680;26.324;2023-03-04T01:28:10;98641.06;;;6.87;100.00
9740;BME280;4909;42.680;26.324;2023-03-04T01:30:37;98631.84;;;6.73;100.00
9740;BME280;4909;42.680;26.324;2023-03-04T01:33:04;98630.25;;;6.67;100.00
9740;BME280;4909;42.680;26.324;2023-03-04T01:35:30;98636.19;;;6.74;100.00
9740;BME280;4909;42.680;26.324;2023-03-04T01:37:58;98632.75;;;6.72;100.00
9740;BME280;4909;42.680;26.324;2023-03-04T01:40:25;98636.78;;;6.83;100.00
9740;BME280;4909;42.680;26.324;2023-03-04T01:42:52;98637.31;;;6.96;100.00
9740;BME280;4909;42.680;26.324;2023-03-04T01:45:19;98645.25;;;6.94;100.00
9740;BME280;4909;42.680;26.324;2023-03-04T01:47:47;98651.38;;;6.96;100.00
9740;BME280;4909;42.680;26.324;2023-03-04T01:50:18;98660.38;;;7.17;100.00
9740;BME280;4909;42.680;26.324;2023-03-04T01:52:46;98662.47;;;7.35;100.00
9740;BME280;4909;42.680;26.324;2023-03-04T01:55:20;98667.47;;;7.45;100.00
9740;BME280;4909;42.680;26.324;2023-03-04T01:57:48;98669.84;;;7.52;100.00
9740;BME280;4909;42.680;26.324;2023-03-04T02:00:33;98664.63;;;7.51;100.00
9740;BME280;4909;42.680;26.324;2023-03-04T02:03:04;98663.81;;;7.49;100.00
9740;BME280;4909;42.680;26.324;2023-03-04T02:05:33;98665.47;;;7.51;100.00
9740;BME280;4909;42.680;26.324;2023-03-04T02:08:02;98661.22;;;7.47;100.00
9740;BME280;4909;42.680;26.324;2023-03-04T02:10:31;98658.72;;;7.42;100.00
9740;BME280;4909;42.680;26.324;2023-03-04T02:12:59;98658.38;;;7.53;100.00
9740;BME280;4909;42.680;26.324;2023-03-04T02:15:27;98664.19;;;7.64;100.00
9740;BME280;4909;42.680;26.324;2023-03-04T02:17:54;98663.66;;;7.53;100.00
9740;BME280;4909;42.680;26.324;2023-03-04T02:20:27;98652.09;;;7.57;100.00
9740;BME280;4909;42.680;26.324;2023-03-04T02:23:00;98617.44;;;7.40;100.00
9740;BME280;4909;42.680;26.324;2023-03-04T02:25:37;98645.41;;;7.73;100.00
9740;BME280;4909;42.680;26.324;2023-03-04T02:28:06;98631.81;;;7.58;100.00
9740;BME280;4909;42.680;26.324;2023-03-04T02:30:33;98641.84;;;7.74;100.00
9740;BME280;4909;42.680;26.324;2023-03-04T02:33:00;98650.19;;;7.89;100.00
9740;BME280;4909;42.680;26.324;2023-03-04T02:35:27;98649.25;;;7.90;100.00
9740;BME280;4909;42.680;26.324;2023-03-04T02:37:54;98652.00;;;7.86;100.00
9740;BME280;4909;42.680;26.324;2023-03-04T02:40:23;98660.53;;;7.68;100.00
9740;BME280;4909;42.680;26.324;2023-03-04T02:42:52;98665.75;;;7.70;100.00
9740;BME280;4909;42.680;26.324;2023-03-04T02:45:36;98677.19;;;7.70;98.79
9740;BME280;4909;42.680;26.324;2023-03-04T02:48:04;98675.84;;;7.57;98.31
9740;BME280;4909;42.680;26.324;2023-03-04T02:50:34;98671.81;;;7.46;98.77
9740;BME280;4909;42.680;26.324;2023-03-04T02:53:01;98670.69;;;6.97;100.00
9740;BME280;4909;42.680;26.324;2023-03-04T02:55:28;98673.50;;;6.91;100.00
9740;BME280;4909;42.680;26.324;2023-03-04T02:57:56;98676.91;;;6.94;100.00
9740;BME280;4909;42.680;26.324;2023-03-04T03:00:23;98679.78;;;7.16;100.00
9740;BME280;4909;42.680;26.324;2023-03-04T03:02:51;98677.78;;;7.24;100.00
9740;BME280;4909;42.680;26.324;2023-03-04T03:05:18;98681.00;;;7.34;100.00
9740;BME280;4909;42.680;26.324;2023-03-04T03:07:45;98685.53;;;7.30;100.00
9740;BME280;4909;42.680;26.324;2023-03-04T03:10:12;98681.88;;;7.34;100.00
9740;BME280;4909;42.680;26.324;2023-03-04T03:12:38;98685.66;;;7.54;100.00
9740;BME280;4909;42.680;26.324;2023-03-04T03:15:08;98678.28;;;7.65;99.82
9740;BME280;4909;42.680;26.324;2023-03-04T03:17:35;98680.53;;;7.75;99.55
9740;BME280;4909;42.680;26.324;2023-03-04T03:20:04;98678.19;;;7.66;100.00
9740;BME280;4909;42.680;26.324;2023-03-04T03:22:31;98673.78;;;7.67;100.00
9740;BME280;4909;42.680;26.324;2023-03-04T03:24:58;98670.91;;;7.74;100.00
9740;BME280;4909;42.680;26.324;2023-03-04T03:27:25;98674.16;;;7.82;100.00
9740;BME280;4909;42.680;26.324;2023-03-04T03:29:52;98672.47;;;7.80;98.76
9740;BME280;4909;42.680;26.324;2023-03-04T03:32:18;98645.41;;;7.46;99.75
9740;BME280;4909;42.680;26.324;2023-03-04T03:34:45;98636.81;;;7.40;100.00
9740;BME280;4909;42.680;26.324;2023-03-04T03:37:14;98655.50;;;7.61;100.00
9740;BME280;4909;42.680;26.324;2023-03-04T03:39:40;98653.78;;;7.60;100.00
9740;BME280;4909;42.680;26.324;2023-03-04T03:42:07;98656.19;;;7.66;100.00
9740;BME280;4909;42.680;26.324;2023-03-04T03:44:34;98652.13;;;7.56;100.00
9740;BME280;4909;42.680;26.324;2023-03-04T03:47:01;98662.53;;;7.60;100.00
9740;BME280;4909;42.680;26.324;2023-03-04T03:49:28;98655.91;;;7.75;100.00
9740;BME280;4909;42.680;26.324;2023-03-04T03:51:54;98657.41;;;7.83;100.00
9740;BME280;4909;42.680;26.324;2023-03-04T03:54:22;98666.84;;;7.91;100.00
9740;BME280;4909;42.680;26.324;2023-03-04T03:56:49;98667.47;;;7.99;100.00
9740;BME280;4909;42.680;26.324;2023-03-04T03:59:16;98669.88;;;8.05;100.00
9740;BME280;4909;42.680;26.324;2023-03-04T04:01:43;98668.69;;;7.89;100.00
9740;BME280;4909;42.680;26.324;2023-03-04T04:04:10;98674.16;;;7.82;100.00
9740;BME280;4909;42.680;26.324;2023-03-04T04:06:36;98677.41;;;7.91;100.00
9740;BME280;4909;42.680;26.324;2023-03-04T04:09:03;98681.81;;;7.90;100.00
9740;BME280;4909;42.680;26.324;2023-03-04T04:11:31;98690.47;;;7.95;100.00
9740;BME280;4909;42.680;26.324;2023-03-04T04:13:58;98690.06;;;8.07;100.00
9740;BME280;4909;42.680;26.324;2023-03-04T04:16:25;98691.28;;;7.97;100.00
9740;BME280;4909;42.680;26.324;2023-03-04T04:18:52;98693.06;;;7.97;100.00
9740;BME280;4909;42.680;26.324;2023-03-04T04:21:18;98687.22;;;7.87;99.88
9740;BME280;4909;42.680;26.324;2023-03-04T04:23:45;98690.97;;;7.80;100.00
9740;BME280;4909;42.680;26.324;2023-03-04T04:26:12;98692.34;;;7.92;99.12
9740;BME280;4909;42.680;26.324;2023-03-04T04:28:40;98688.72;;;7.94;99.49
9740;BME280;4909;42.680;26.324;2023-03-04T04:31:07;98692.19;;;7.96;99.91
9740;BME280;4909;42.680;26.324;2023-03-04T04:33:34;98679.81;;;7.98;100.00
9740;BME280;4909;42.680;26.324;2023-03-04T04:36:01;98676.75;;;8.10;98.73
9740;BME280;4909;42.680;26.324;2023-03-04T04:38:29;98671.72;;;8.03;98.21
9740;BME280;4909;42.680;26.324;2023-03-04T04:40:56;98681.44;;;8.02;99.72
9740;BME280;4909;42.680;26.324;2023-03-04T04:43:24;98682.91;;;8.11;99.43
9740;BME280;4909;42.680;26.324;2023-03-04T04:45:52;98676.50;;;8.18;98.54
9740;BME280;4909;42.680;26.324;2023-03-04T04:48:19;98678.69;;;7.79;98.78
9740;BME280;4909;42.680;26.324;2023-03-04T04:50:46;98679.69;;;7.75;100.00
9740;BME280;4909;42.680;26.324;2023-03-04T04:53:12;98683.41;;;7.69;100.00
9740;BME280;4909;42.680;26.324;2023-03-04T04:55:39;98681.53;;;7.73;100.00
9740;BME280;4909;42.680;26.324;2023-03-04T04:58:06;98651.38;;;7.52;100.00
9740;BME280;4909;42.680;26.324;2023-03-04T05:00:33;98685.38;;;7.89;100.00
9740;BME280;4909;42.680;26.324;2023-03-04T05:03:01;98690.41;;;7.97;100.00
9740;BME280;4909;42.680;26.324;2023-03-04T05:05:28;98698.25;;;8.00;99.69
9740;BME280;4909;42.680;26.324;2023-03-04T05:07:54;98694.38;;;8.10;99.26
9740;BME280;4909;42.680;26.324;2023-03-04T05:10:21;98693.44;;;8.12;99.27
9740;BME280;4909;42.680;26.324;2023-03-04T05:12:48;98694.38;;;8.10;99.78
9740;BME280;4909;42.680;26.324;2023-03-04T05:15:15;98697.53;;;8.21;99.03
9740;BME280;4909;42.680;26.324;2023-03-04T05:17:42;98689.81;;;8.15;98.66
9740;BME280;4909;42.680;26.324;2023-03-04T05:20:11;98686.34;;;8.13;99.21
9740;BME280;4909;42.680;26.324;2023-03-04T05:22:38;98695.44;;;8.04;99.13
9740;BME280;4909;42.680;26.324;2023-03-04T05:25:05;98693.94;;;7.97;99.87
9740;BME280;4909;42.680;26.324;2023-03-04T05:27:32;98691.53;;;7.90;100.00
9740;BME280;4909;42.680;26.324;2023-03-04T05:29:59;98695.94;;;7.89;100.00
9740;BME280;4909;42.680;26.324;2023-03-04T05:32:26;98691.94;;;7.77;100.00
9740;BME280;4909;42.680;26.324;2023-03-04T05:34:53;98693.88;;;7.72;100.00
9740;BME280;4909;42.680;26.324;2023-03-04T05:37:21;98688.78;;;7.66;100.00
9740;BME280;4909;42.680;26.324;2023-03-04T05:39:48;98684.13;;;7.74;100.00
9740;BME280;4909;42.680;26.324;2023-03-04T05:42:15;98696.72;;;7.93;100.00
9740;BME280;4909;42.680;26.324;2023-03-04T05:44:41;98666.38;;;7.78;100.00
9740;BME280;4909;42.680;26.324;2023-03-04T05:47:08;98653.94;;;7.81;100.00
9740;BME280;4909;42.680;26.324;2023-03-04T05:49:35;98673.97;;;7.89;100.00
9740;BME280;4909;42.680;26.324;2023-03-04T05:52:02;98677.75;;;8.06;100.00
9740;BME280;4909;42.680;26.324;2023-03-04T05:54:30;98679.34;;;8.12;100.00
9740;BME280;4909;42.680;26.324;2023-03-04T05:56:56;98673.97;;;8.13;100.00
9740;BME280;4909;42.680;26.324;2023-03-04T05:59:23;98677.03;;;8.27;100.00
9740;BME280;4909;42.680;26.324;2023-03-04T06:01:50;98672.50;;;8.33;100.00
9740;BME280;4909;42.680;26.324;2023-03-04T06:04:17;98675.22;;;8.54;100.00
9740;BME280;4909;42.680;26.324;2023-03-04T06:06:44;98677.16;;;8.49;100.00
9740;BME280;4909;42.680;26.324;2023-03-04T06:09:11;98677.66;;;8.60;100.00
9740;BME280;4909;42.680;26.324;2023-03-04T06:11:40;98676.97;;;8.55;100.00
9740;BME280;4909;42.680;26.324;2023-03-04T06:14:07;98679.59;;;8.80;99.82
9740;BME280;4909;42.680;26.324;2023-03-04T06:16:33;98679.59;;;8.80;100.00
9740;BME280;4909;42.680;26.324;2023-03-04T06:19:00;98684.88;;;8.80;99.13
9740;BME280;4909;42.680;26.324;2023-03-04T06:21:27;98679.13;;;8.92;98.68
9740;BME280;4909;42.680;26.324;2023-03-04T06:23:53;98686.28;;;8.90;97.02
9740;BME280;4909;42.680;26.324;2023-03-04T06:26:20;98686.22;;;8.67;98.95
9740;BME280;4909;42.680;26.324;2023-03-04T06:28:48;98686.34;;;8.39;99.32
9740;BME280;4909;42.680;26.324;2023-03-04T06:31:15;98685.97;;;8.50;99.70
9740;BME280;4909;42.680;26.324;2023-03-04T06:33:42;98697.22;;;8.56;100.00
9740;BME280;4909;42.680;26.324;2023-03-04T06:36:08;98700.25;;;8.94;99.46
9740;BME280;4909;42.680;26.324;2023-03-04T06:38:35;98703.88;;;9.14;97.54
9740;BME280;4909;42.680;26.324;2023-03-04T06:41:06;98709.63;;;9.26;97.35
9740;BME280;4909;42.680;26.324;2023-03-04T06:43:33;98712.19;;;9.29;96.97
9740;BME280;4909;42.680;26.324;2023-03-04T06:46:01;98716.44;;;9.33;97.89
9740;BME280;4909;42.680;26.324;2023-03-04T06:48:28;98713.25;;;9.23;98.54
9740;BME280;4909;42.680;26.324;2023-03-04T06:50:55;98710.28;;;9.09;99.78
9740;BME280;4909;42.680;26.324;2023-03-04T06:53:22;98717.38;;;9.30;98.75
9740;BME280;4909;42.680;26.324;2023-03-04T06:55:49;98718.94;;;9.36;99.13
9740;BME280;4909;42.680;26.324;2023-03-04T06:58:15;98722.06;;;9.47;98.41
9740;BME280;4909;42.680;26.324;2023-03-04T07:00:42;98717.53;;;9.49;98.10
9740;BME280;4909;42.680;26.324;2023-03-04T07:03:11;98716.53;;;9.53;98.02
9740;BME280;4909;42.680;26.324;2023-03-04T07:05:38;98712.25;;;9.49;98.30
9740;BME280;4909;42.680;26.324;2023-03-04T07:08:05;98710.50;;;9.71;95.93
9740;BME280;4909;42.680;26.324;2023-03-04T07:10:32;98720.84;;;9.99;94.99
9740;BME280;4909;42.680;26.324;2023-03-04T07:12:59;98719.97;;;9.98;94.43
9740;BME280;4909;42.680;26.324;2023-03-04T07:15:26;98724.59;;;9.93;93.90
9740;BME280;4909;42.680;26.324;2023-03-04T07:17:53;98726.66;;;9.87;94.58
9740;BME280;4909;42.680;26.324;2023-03-04T07:20:21;98727.38;;;9.90;94.21
9740;BME280;4909;42.680;26.324;2023-03-04T07:22:48;98729.91;;;9.93;93.11
9740;BME280;4909;42.680;26.324;2023-03-04T07:25:15;98706.44;;;9.63;93.80
9740;BME280;4909;42.680;26.324;2023-03-04T07:27:42;98726.00;;;9.58;95.10
9740;BME280;4909;42.680;26.324;2023-03-04T07:30:10;98721.16;;;9.70;95.82
9740;BME280;4909;42.680;26.324;2023-03-04T07:32:37;98718.25;;;9.76;94.82
9740;BME280;4909;42.680;26.324;2023-03-04T07:35:04;98719.56;;;9.87;94.30
9740;BME280;4909;42.680;26.324;2023-03-04T07:37:33;98712.84;;;10.00;93.43
9740;BME280;4909;42.680;26.324;2023-03-04T07:39:59;98727.53;;;10.31;92.12
9740;BME280;4909;42.680;26.324;2023-03-04T07:42:26;98729.03;;;10.36;92.05
9740;BME280;4909;42.680;26.324;2023-03-04T07:44:53;98728.56;;;10.47;89.94
9740;BME280;4909;42.680;26.324;2023-03-04T07:47:20;98726.72;;;10.29;90.83
9740;BME280;4909;42.680;26.324;2023-03-04T07:49:47;98719.91;;;10.22;91.44
9740;BME280;4909;42.680;26.324;2023-03-04T07:52:14;98723.88;;;10.54;90.21
9740;BME280;4909;42.680;26.324;2023-03-04T07:54:42;98719.31;;;10.57;89.53
9740;BME280;4909;42.680;26.324;2023-03-04T07:57:09;98713.09;;;10.97;88.13
9740;BME280;4909;42.680;26.324;2023-03-04T07:59:35;98725.72;;;11.31;87.38
9740;BME280;4909;42.680;26.324;2023-03-04T08:02:02;98719.53;;;11.49;87.50
9740;BME280;4909;42.680;26.324;2023-03-04T08:04:29;98721.94;;;11.55;85.92
9740;BME280;4909;42.680;26.324;2023-03-04T08:06:56;98723.34;;;11.25;87.22
9740;BME280;4909;42.680;26.324;2023-03-04T08:09:23;98716.72;;;11.15;87.12
9740;BME280;4909;42.680;26.324;2023-03-04T08:11:51;98722.47;;;11.43;86.05
9740;BME280;4909;42.680;26.324;2023-03-04T08:14:18;98719.75;;;11.45;85.33
9740;BME280;4909;42.680;26.324;2023-03-04T08:16:45;98714.66;;;11.40;84.46
9740;BME280;4909;42.680;26.324;2023-03-04T08:19:12;98709.47;;;11.18;85.91
9740;BME280;4909;42.680;26.324;2023-03-04T08:21:38;98710.41;;;11.17;86.31
9740;BME280;4909;42.680;26.324;2023-03-04T08:24:05;98715.16;;;11.29;86.22
9740;BME280;4909;42.680;26.324;2023-03-04T08:26:36;98715.94;;;11.13;87.42
9740;BME280;4909;42.680;26.324;2023-03-04T08:29:08;98678.41;;;10.61;89.64
9740;BME280;4909;42.680;26.324;2023-03-04T08:31:35;98704.28;;;10.76;90.86
9740;BME280;4909;42.680;26.324;2023-03-04T08:34:03;98708.94;;;10.92;89.69
9740;BME280;4909;42.680;26.324;2023-03-04T08:36:31;98702.56;;;10.75;89.78
9740;BME280;4909;42.680;26.324;2023-03-04T08:38:58;98708.03;;;10.72;89.42
9740;BME280;4909;42.680;26.324;2023-03-04T08:41:28;98681.56;;;10.89;90.18
9740;BME280;4909;42.680;26.324;2023-03-04T08:43:55;98695.34;;;11.18;87.93
9740;BME280;4909;42.680;26.324;2023-03-04T08:46:23;98692.44;;;11.04;87.35
9740;BME280;4909;42.680;26.324;2023-03-04T08:48:50;98697.19;;;10.77;88.36
9740;BME280;4909;42.680;26.324;2023-03-04T08:51:17;98686.88;;;10.89;89.59
9740;BME280;4909;42.680;26.324;2023-03-04T08:53:44;98685.53;;;11.00;89.36
9740;BME280;4909;42.680;26.324;2023-03-04T08:56:11;98686.78;;;11.11;88.66
9740;BME280;4909;42.680;26.324;2023-03-04T08:58:39;98668.19;;;11.11;88.64
9740;BME280;4909;42.680;26.324;2023-03-04T09:01:07;98691.72;;;11.38;87.68
9740;BME280;4909;42.680;26.324;2023-03-04T09:03:36;98690.91;;;11.74;85.99
9740;BME280;4909;42.680;26.324;2023-03-04T09:06:04;98693.97;;;11.65;84.11
9740;BME280;4909;42.680;26.324;2023-03-04T09:08:31;98690.09;;;11.72;85.23
9740;BME280;4909;42.680;26.324;2023-03-04T09:10:58;98685.69;;;11.71;86.24
9740;BME280;4909;42.680;26.324;2023-03-04T09:13:27;98687.09;;;11.80;86.97
9740;BME280;4909;42.680;26.324;2023-03-04T09:15:54;98695.22;;;12.13;84.17
9740;BME280;4909;42.680;26.324;2023-03-04T09:18:22;98677.50;;;12.12;83.31
9740;BME280;4909;42.680;26.324;2023-03-04T09:20:51;98687.97;;;11.81;84.60
9740;BME280;4909;42.680;26.324;2023-03-04T09:23:18;98685.53;;;11.93;84.08
9740;BME280;4909;42.680;26.324;2023-03-04T09:25:45;98678.47;;;12.45;83.59
9740;BME280;4909;42.680;26.324;2023-03-04T09:28:14;98685.72;;;12.59;81.44
9740;BME280;4909;42.680;26.324;2023-03-04T09:30:41;98686.28;;;12.83;81.05
9740;BME280;4909;42.680;26.324;2023-03-04T09:33:08;98675.50;;;13.01;81.57
9740;BME280;4909;42.680;26.324;2023-03-04T09:35:35;98679.63;;;13.24;79.98
9740;BME280;4909;42.680;26.324;2023-03-04T09:38:04;98675.41;;;13.52;79.31
9740;BME280;4909;42.680;26.324;2023-03-04T09:40:38;98671.91;;;13.82;78.96
9740;BME280;4909;42.680;26.324;2023-03-04T09:43:11;98669.28;;;14.12;76.38
9740;BME280;4909;42.680;26.324;2023-03-04T09:45:47;98672.66;;;14.46;75.52
9740;BME280;4909;42.680;26.324;2023-03-04T09:48:17;98664.34;;;14.20;74.91
9740;BME280;4909;42.680;26.324;2023-03-04T09:50:55;98660.84;;;14.04;76.45
9740;BME280;4909;42.680;26.324;2023-03-04T09:53:34;98664.53;;;14.17;76.38
9740;BME280;4909;42.680;26.324;2023-03-04T09:56:06;98652.16;;;14.30;75.81
9740;BME280;4909;42.680;26.324;2023-03-04T09:58:43;98653.38;;;14.25;75.35
9740;BME280;4909;42.680;26.324;2023-03-04T10:01:18;98652.63;;;14.53;77.77
9740;BME280;4909;42.680;26.324;2023-03-04T10:03:50;98641.16;;;14.81;76.17
9740;BME280;4909;42.680;26.324;2023-03-04T10:06:19;98646.50;;;14.81;74.49
9740;BME280;4909;42.680;26.324;2023-03-04T10:08:53;98643.34;;;14.14;76.07
9740;BME280;4909;42.680;26.324;2023-03-04T10:11:24;98640.91;;;13.80;76.59
9740;BME280;4909;42.680;26.324;2023-03-04T10:13:59;98630.44;;;13.30;78.07
9740;BME280;4909;42.680;26.324;2023-03-04T10:16:31;98574.69;;;13.10;78.84
9740;BME280;4909;42.680;26.324;2023-03-04T10:19:17;98610.91;;;13.29;76.41
9740;BME280;4909;42.680;26.324;2023-03-04T10:21:47;98615.59;;;13.08;77.96
9740;BME280;4909;42.680;26.324;2023-03-04T10:24:17;98595.00;;;13.12;79.40
9740;BME280;4909;42.680;26.324;2023-03-04T10:26:50;98604.84;;;13.10;80.92
9740;BME280;4909;42.680;26.324;2023-03-04T10:29:20;98600.06;;;13.48;79.58
9740;BME280;4909;42.680;26.324;2023-03-04T10:31:49;98614.69;;;13.72;78.84
9740;BME280;4909;42.680;26.324;2023-03-04T10:34:16;98606.88;;;13.69;78.68
9740;BME280;4909;42.680;26.324;2023-03-04T10:36:52;98602.28;;;13.71;77.17
9740;BME280;4909;42.680;26.324;2023-03-04T10:39:26;98605.47;;;13.78;77.01
9740;BME280;4909;42.680;26.324;2023-03-04T10:41:57;98597.56;;;13.61;75.44
9740;BME280;4909;42.680;26.324;2023-03-04T10:44:24;98596.22;;;13.38;76.20
9740;BME280;4909;42.680;26.324;2023-03-04T10:46:53;98587.69;;;13.31;77.25
9740;BME280;4909;42.680;26.324;2023-03-04T10:49:20;98590.19;;;13.34;77.21
9740;BME280;4909;42.680;26.324;2023-03-04T10:51:51;98574.72;;;13.25;79.41
9740;BME280;4909;42.680;26.324;2023-03-04T10:54:26;98569.88;;;13.00;80.61
9740;BME280;4909;42.680;26.324;2023-03-04T10:56:59;98562.22;;;12.94;81.58
9740;BME280;4909;42.680;26.324;2023-03-04T10:59:45;98565.78;;;13.26;79.42
9740;BME280;4909;42.680;26.324;2023-03-04T11:02:23;98568.22;;;12.98;79.87
9740;BME280;4909;42.680;26.324;2023-03-04T11:04:53;98550.88;;;12.91;81.16
9740;BME280;4909;42.680;26.324;2023-03-04T11:07:22;98556.09;;;13.08;80.41
9740;BME280;4909;42.680;26.324;2023-03-04T11:09:51;98548.47;;;13.02;79.75
9740;BME280;4909;42.680;26.324;2023-03-04T11:12:20;98545.38;;;13.10;80.26
9740;BME280;4909;42.680;26.324;2023-03-04T11:14:48;98541.78;;;13.11;81.02
9740;BME280;4909;42.680;26.324;2023-03-04T11:17:20;98532.47;;;12.86;81.61
9740;BME280;4909;42.680;26.324;2023-03-04T11:19:51;98533.25;;;12.73;81.42
9740;BME280;4909;42.680;26.324;2023-03-04T11:22:21;98537.56;;;13.22;80.86
9740;BME280;4909;42.680;26.324;2023-03-04T11:24:55;98527.75;;;13.38;79.56
9740;BME280;4909;42.680;26.324;2023-03-04T11:27:28;98501.00;;;13.08;80.60
9740;BME280;4909;42.680;26.324;2023-03-04T11:30:03;98499.28;;;13.07;80.74
9740;BME280;4909;42.680;26.324;2023-03-04T11:32:42;98524.63;;;13.16;80.67
9740;BME280;4909;42.680;26.324;2023-03-04T11:35:17;98509.22;;;13.21;80.28
9740;BME280;4909;42.680;26.324;2023-03-04T11:37:50;98515.81;;;12.83;82.53
9740;BME280;4909;42.680;26.324;2023-03-04T11:40:27;98510.00;;;12.59;84.99
9740;BME280;4909;42.680;26.324;2023-03-04T11:42:57;98490.53;;;12.74;84.04
9740;BME280;4909;42.680;26.324;2023-03-04T11:45:42;98515.06;;;13.12;82.49
9740;BME280;4909;42.680;26.324;2023-03-04T11:48:31;98481.00;;;13.17;80.96
9740;BME280;4909;42.680;26.324;2023-03-04T11:51:03;98507.38;;;13.37;80.60
9740;BME280;4909;42.680;26.324;2023-03-04T11:53:43;98506.72;;;13.34;81.69
9740;BME280;4909;42.680;26.324;2023-03-04T11:56:28;98498.63;;;13.04;82.22
9740;BME280;4909;42.680;26.324;2023-03-04T11:59:19;98505.38;;;13.11;81.19
9740;BME280;4909;42.680;26.324;2023-03-04T12:01:57;98500.66;;;12.83;81.39
9740;BME280;4909;42.680;26.324;2023-03-04T12:04:41;98501.81;;;12.95;82.31
9740;BME280;4909;42.680;26.324;2023-03-04T12:07:21;98492.53;;;13.18;81.18
9740;BME280;4909;42.680;26.324;2023-03-04T12:10:11;98495.31;;;13.16;81.21
9740;BME280;4909;42.680;26.324;2023-03-04T12:13:01;98490.16;;;13.43;81.24
9740;BME280;4909;42.680;26.324;2023-03-04T12:15:39;98471.63;;;13.56;80.12
9740;BME280;4909;42.680;26.324;2023-03-04T12:18:20;98468.63;;;13.62;79.53
9740;BME280;4909;42.680;26.324;2023-03-04T12:21:03;98484.34;;;13.05;80.12
9740;BME280;4909;42.680;26.324;2023-03-04T12:23:48;98474.56;;;13.05;81.99
9740;BME280;4909;42.680;26.324;2023-03-04T12:26:24;98471.16;;;13.49;81.18
9740;BME280;4909;42.680;26.324;2023-03-04T12:29:03;98471.66;;;14.00;80.11
9740;BME280;4909;42.680;26.324;2023-03-04T12:31:35;98454.69;;;14.01;78.21
9740;BME280;4909;42.680;26.324;2023-03-04T12:34:29;98473.00;;;14.35;76.49
9740;BME280;4909;42.680;26.324;2023-03-04T12:37:06;98470.63;;;14.30;76.83
9740;BME280;4909;42.680;26.324;2023-03-04T12:39:40;98454.53;;;14.18;76.44
9740;BME280;4909;42.680;26.324;2023-03-04T12:42:19;98464.22;;;14.33;75.58
9740;BME280;4909;42.680;26.324;2023-03-04T12:44:55;98455.38;;;14.32;76.30
9740;BME280;4909;42.680;26.324;2023-03-04T12:47:31;98461.56;;;14.19;75.88
9740;BME280;4909;42.680;26.324;2023-03-04T12:50:17;98468.41;;;13.94;75.88
9740;BME280;4909;42.680;26.324;2023-03-04T12:52:55;98457.56;;;13.54;78.73
9740;BME280;4909;42.680;26.324;2023-03-04T12:55:31;98453.78;;;13.42;79.61
9740;BME280;4909;42.680;26.324;2023-03-04T12:58:02;98447.53;;;13.43;79.05
9740;BME280;4909;42.680;26.324;2023-03-04T13:00:40;98441.59;;;13.38;79.04
9740;BME280;4909;42.680;26.324;2023-03-04T13:03:16;98444.34;;;13.36;78.96
9740;BME280;4909;42.680;26.324;2023-03-04T13:05:59;98432.34;;;13.29;79.41
9740;BME280;4909;42.680;26.324;2023-03-04T13:08:35;98430.91;;;13.54;78.05
9740;BME280;4909;42.680;26.324;2023-03-04T13:11:31;98434.16;;;13.29;78.55
9740;BME280;4909;42.680;26.324;2023-03-04T13:14:03;98430.69;;;13.27;80.07
9740;BME280;4909;42.680;26.324;2023-03-04T13:16:33;98423.22;;;13.33;79.35
9740;BME280;4909;42.680;26.324;2023-03-04T13:19:02;98421.56;;;13.17;79.86
9740;BME280;4909;42.680;26.324;2023-03-04T13:21:29;98421.69;;;12.98;80.72
9740;BME280;4909;42.680;26.324;2023-03-04T13:23:57;98371.81;;;12.86;80.42
9740;BME280;4909;42.680;26.324;2023-03-04T13:26:29;98419.63;;;13.19;80.34